sensor_id;sensor_type;location;lat;lon;timestamp;temperature;humidity
16823;DHT22;8528;49.976;11.858;2023-03-01T00:01:07;-5.50;99.90
16823;DHT22;8528;49.976;11.858;2023-03-01T00:03:34;-5.50;99.90
16823;DHT22;8528;49.976;11.858;2023-03-01T00:06:02;-5.50;99.90
16823;DHT22;8528;49.976;11.858;2023-03-01T00:08:29;-5.50;99.90
16823;DHT22;8528;49.976;11.858;2023-03-01T00:11:04;-5.50;99.90
16823;DHT22;8528;49.976;11.858;2023-03-01T00:13:31;-5.50;99.90
16823;DHT22;8528;49.976;11.858;2023-03-01T00:15:58;-5.60;99.90
16823;DHT22;8528;49.976;11.858;2023-03-01T00:18:25;-5.60;99.90
16823;DHT22;8528;49.976;11.858;2023-03-01T00:20:54;-5.60;99.90
16823;DHT22;8528;49.976;11.858;2023-03-01T00:23:22;-5.60;99.90
16823;DHT22;8528;49.976;11.858;2023-03-01T00:25:49;-5.60;99.90
16823;DHT22;8528;49.976;11.858;2023-03-01T00:28:17;-5.60;99.90
16823;DHT22;8528;49.976;11.858;2023-03-01T00:30:44;-5.60;99.90
16823;DHT22;8528;49.976;11.858;2023-03-01T00:33:11;-5.70;99.90
16823;DHT22;8528;49.976;11.858;2023-03-01T00:35:38;-5.60;99.90
16823;DHT22;8528;49.976;11.858;2023-03-01T00:38:06;-5.70;99.90
16823;DHT22;8528;49.976;11.858;2023-03-01T00:40:34;-5.70;99.90
16823;DHT22;8528;49.976;11.858;2023-03-01T00:43:02;-5.70;99.90
16823;DHT22;8528;49.976;11.858;2023-03-01T00:45:29;-5.60;99.90
16823;DHT22;8528;49.976;11.858;2023-03-01T00:47:57;-5.70;99.90
16823;DHT22;8528;49.976;11.858;2023-03-01T00:50:24;-5.60;99.90
16823;DHT22;8528;49.976;11.858;2023-03-01T00:52:55;-5.60;99.90
16823;DHT22;8528;49.976;11.858;2023-03-01T00:55:22;-5.60;99.90
16823;DHT22;8528;49.976;11.858;2023-03-01T00:57:49;-5.50;99.90
16823;DHT22;8528;49.976;11.858;2023-03-01T01:00:16;-5.50;99.90
16823;DHT22;8528;49.976;11.858;2023-03-01T01:02:43;-5.50;99.90
16823;DHT22;8528;49.976;11.858;2023-03-01T01:05:10;-5.60;99.90
16823;DHT22;8528;49.976;11.858;2023-03-01T01:07:37;-5.60;99.90
16823;DHT22;8528;49.976;11.858;2023-03-01T01:10:05;-5.50;99.90
16823;DHT22;8528;49.976;11.858;2023-03-01T01:12:32;-5.50;99.90
16823;DHT22;8528;49.976;11.858;2023-03-01T01:15:01;-5.40;99.90
16823;DHT22;8528;49.976;11.858;2023-03-01T01:17:28;-5.50;99.90
16823;DHT22;8528;49.976;11.858;2023-03-01T01:19:55;-5.50;99.90
16823;DHT22;8528;49.976;11.858;2023-03-01T01:22:22;-5.50;99.90
16823;DHT22;8528;49.976;11.858;2023-03-01T01:24:49;-5.60;99.90
16823;DHT22;8528;49.976;11.858;2023-03-01T01:27:15;-5.50;99.90
16823;DHT22;8528;49.976;11.858;2023-03-01T01:29:42;-5.50;99.90
16823;DHT22;8528;49.976;11.858;2023-03-01T01:32:09;-5.60;99.90
16823;DHT22;8528;49.976;11.858;2023-03-01T01:34:35;-5.50;99.90
16823;DHT22;8528;49.976;11.858;2023-03-01T01:37:02;-5.50;99.90
16823;DHT22;8528;49.976;11.858;2023-03-01T01:39:29;-5.50;99.90
16823;DHT22;8528;49.976;11.858;2023-03-01T01:41:56;-5.50;99.90
16823;DHT22;8528;49.976;11.858;2023-03-01T01:44:26;-5.60;99.90
16823;DHT22;8528;49.976;11.858;2023-03-01T01:47:08;-5.60;99.90
16823;DHT22;8528;49.976;11.858;2023-03-01T01:49:46;-5.70;99.90
16823;DHT22;8528;49.976;11.858;2023-03-01T01:52:20;-5.70;99.90
16823;DHT22;8528;49.976;11.858;2023-03-01T01:57:24;-5.70;99.90
16823;DHT22;8528;49.976;11.858;2023-03-01T01:59:56;-5.70;99.90
16823;DHT22;8528;49.976;11.858;2023-03-01T02:02:26;-5.70;99.90
16823;DHT22;8528;49.976;11.858;2023-03-01T02:05:00;-5.60;99.90
16823;DHT22;8528;49.976;11.858;2023-03-01T02:07:30;-5.50;99.90
16823;DHT22;8528;49.976;11.858;2023-03-01T02:09:57;-5.60;99.90
16823;DHT22;8528;49.976;11.858;2023-03-01T02:12:24;-5.60;99.90
16823;DHT22;8528;49.976;11.858;2023-03-01T02:14:52;-5.60;99.90
16823;DHT22;8528;49.976;11.858;2023-03-01T02:17:19;-5.70;99.90
16823;DHT22;8528;49.976;11.858;2023-03-01T02:22:56;-5.70;99.90
16823;DHT22;8528;49.976;11.858;2023-03-01T02:25:51;-5.60;99.90
16823;DHT22;8528;49.976;11.858;2023-03-01T02:28:36;-5.60;99.90
16823;DHT22;8528;49.976;11.858;2023-03-01T02:31:05;-5.60;99.90
16823;DHT22;8528;49.976;11.858;2023-03-01T02:33:52;-5.60;99.90
16823;DHT22;8528;49.976;11.858;2023-03-01T02:36:26;-5.60;99.90
16823;DHT22;8528;49.976;11.858;2023-03-01T02:38:57;-5.60;99.90
16823;DHT22;8528;49.976;11.858;2023-03-01T02:41:26;-5.50;99.90
16823;DHT22;8528;49.976;11.858;2023-03-01T02:43:55;-5.50;99.90
16823;DHT22;8528;49.976;11.858;2023-03-01T02:46:24;-5.50;99.90
16823;DHT22;8528;49.976;11.858;2023-03-01T02:48:53;-5.40;99.90
16823;DHT22;8528;49.976;11.858;2023-03-01T02:51:42;-5.40;99.90
16823;DHT22;8528;49.976;11.858;2023-03-01T02:54:25;-5.40;99.90
16823;DHT22;8528;49.976;11.858;2023-03-01T02:56:55;-5.40;99.90
16823;DHT22;8528;49.976;11.858;2023-03-01T02:59:27;-5.40;99.90
16823;DHT22;8528;49.976;11.858;2023-03-01T03:01:55;-5.40;99.90
16823;DHT22;8528;49.976;11.858;2023-03-01T03:04:22;-5.40;99.90
16823;DHT22;8528;49.976;11.858;2023-03-01T03:06:50;-5.30;99.90
16823;DHT22;8528;49.976;11.858;2023-03-01T03:09:18;-5.30;99.90
16823;DHT22;8528;49.976;11.858;2023-03-01T03:11:45;-5.30;99.90
16823;DHT22;8528;49.976;11.858;2023-03-01T03:14:13;-5.40;99.90
16823;DHT22;8528;49.976;11.858;2023-03-01T03:16:46;-5.40;99.90
16823;DHT22;8528;49.976;11.858;2023-03-01T03:19:14;-5.40;99.90
16823;DHT22;8528;49.976;11.858;2023-03-01T03:21:43;-5.40;99.90
16823;DHT22;8528;49.976;11.858;2023-03-01T03:24:10;-5.40;99.90
16823;DHT22;8528;49.976;11.858;2023-03-01T03:26:36;-5.30;99.90
16823;DHT22;8528;49.976;11.858;2023-03-01T03:29:03;-5.30;99.90
16823;DHT22;8528;49.976;11.858;2023-03-01T03:31:30;-5.30;99.90
16823;DHT22;8528;49.976;11.858;2023-03-01T03:33:57;-5.20;99.90
16823;DHT22;8528;49.976;11.858;2023-03-01T03:36:25;-5.20;99.90
16823;DHT22;8528;49.976;11.858;2023-03-01T03:38:52;-5.10;99.90
16823;DHT22;8528;49.976;11.858;2023-03-01T03:41:19;-5.10;99.90
16823;DHT22;8528;49.976;11.858;2023-03-01T03:43:46;-5.00;99.90
16823;DHT22;8528;49.976;11.858;2023-03-01T03:46:13;-5.00;99.90
16823;DHT22;8528;49.976;11.858;2023-03-01T03:48:42;-4.90;99.90
16823;DHT22;8528;49.976;11.858;2023-03-01T03:51:13;-4.90;99.90
16823;DHT22;8528;49.976;11.858;2023-03-01T03:53:41;-4.90;99.90
16823;DHT22;8528;49.976;11.858;2023-03-01T03:56:08;-4.90;99.90
16823;DHT22;8528;49.976;11.858;2023-03-01T03:58:35;-5.00;99.90
16823;DHT22;8528;49.976;11.858;2023-03-01T04:01:02;-5.00;99.90
16823;DHT22;8528;49.976;11.858;2023-03-01T04:03:30;-4.90;99.90
16823;DHT22;8528;49.976;11.858;2023-03-01T04:05:59;-5.00;99.90
16823;DHT22;8528;49.976;11.858;2023-03-01T04:08:27;-5.00;99.90
16823;DHT22;8528;49.976;11.858;2023-03-01T04:11:00;-5.00;99.90
16823;DHT22;8528;49.976;11.858;2023-03-01T04:13:47;-5.00;99.90
16823;DHT22;8528;49.976;11.858;2023-03-01T04:16:14;-4.90;99.90
16823;DHT22;8528;49.976;11.858;2023-03-01T04:18:41;-4.80;99.90
16823;DHT22;8528;49.976;11.858;2023-03-01T04:21:08;-4.70;99.90
16823;DHT22;8528;49.976;11.858;2023-03-01T04:23:35;-4.70;99.90
16823;DHT22;8528;49.976;11.858;2023-03-01T04:26:03;-4.70;99.90
16823;DHT22;8528;49.976;11.858;2023-03-01T04:28:38;-4.70;99.90
16823;DHT22;8528;49.976;11.858;2023-03-01T04:31:10;-4.60;99.90
16823;DHT22;8528;49.976;11.858;2023-03-01T04:33:41;-4.70;99.90
16823;DHT22;8528;49.976;11.858;2023-03-01T04:36:09;-4.70;99.90
16823;DHT22;8528;49.976;11.858;2023-03-01T04:38:37;-4.80;99.90
16823;DHT22;8528;49.976;11.858;2023-03-01T04:41:06;-4.80;99.90
16823;DHT22;8528;49.976;11.858;2023-03-01T04:43:34;-4.80;99.90
16823;DHT22;8528;49.976;11.858;2023-03-01T04:46:05;-4.80;99.90
16823;DHT22;8528;49.976;11.858;2023-03-01T04:48:39;-4.70;99.90
16823;DHT22;8528;49.976;11.858;2023-03-01T04:51:07;-4.70;99.90
16823;DHT22;8528;49.976;11.858;2023-03-01T04:53:35;-4.60;99.90
16823;DHT22;8528;49.976;11.858;2023-03-01T04:56:05;-4.60;99.90
16823;DHT22;8528;49.976;11.858;2023-03-01T04:58:32;-4.40;99.90
16823;DHT22;8528;49.976;11.858;2023-03-01T05:00:59;-4.40;99.90
16823;DHT22;8528;49.976;11.858;2023-03-01T05:03:25;-4.40;99.90
16823;DHT22;8528;49.976;11.858;2023-03-01T05:05:53;-4.30;99.90
16823;DHT22;8528;49.976;11.858;2023-03-01T05:08:19;-4.40;99.90
16823;DHT22;8528;49.976;11.858;2023-03-01T05:10:52;-4.40;99.90
16823;DHT22;8528;49.976;11.858;2023-03-01T05:13:20;-4.50;99.90
16823;DHT22;8528;49.976;11.858;2023-03-01T05:15:49;-4.50;99.90
16823;DHT22;8528;49.976;11.858;2023-03-01T05:18:20;-4.60;99.90
16823;DHT22;8528;49.976;11.858;2023-03-01T05:20:47;-4.60;99.90
16823;DHT22;8528;49.976;11.858;2023-03-01T05:23:14;-4.60;99.90
16823;DHT22;8528;49.976;11.858;2023-03-01T05:25:40;-4.60;99.90
16823;DHT22;8528;49.976;11.858;2023-03-01T05:28:11;-4.60;99.90
16823;DHT22;8528;49.976;11.858;2023-03-01T05:30:38;-4.60;99.90
16823;DHT22;8528;49.976;11.858;2023-03-01T05:33:08;-4.60;99.90
16823;DHT22;8528;49.976;11.858;2023-03-01T05:35:42;-4.60;99.90
16823;DHT22;8528;49.976;11.858;2023-03-01T05:38:10;-4.60;99.90
16823;DHT22;8528;49.976;11.858;2023-03-01T05:40:46;-4.60;99.90
16823;DHT22;8528;49.976;11.858;2023-03-01T05:43:15;-4.60;99.90
16823;DHT22;8528;49.976;11.858;2023-03-01T05:45:42;-4.70;99.90
16823;DHT22;8528;49.976;11.858;2023-03-01T05:48:10;-4.60;99.90
16823;DHT22;8528;49.976;11.858;2023-03-01T05:50:40;-4.60;99.90
16823;DHT22;8528;49.976;11.858;2023-03-01T05:53:11;-4.60;99.90
16823;DHT22;8528;49.976;11.858;2023-03-01T05:55:38;-4.70;99.90
16823;DHT22;8528;49.976;11.858;2023-03-01T05:58:09;-4.70;99.90
16823;DHT22;8528;49.976;11.858;2023-03-01T06:00:35;-4.70;99.90
16823;DHT22;8528;49.976;11.858;2023-03-01T06:03:02;-4.70;99.90
16823;DHT22;8528;49.976;11.858;2023-03-01T06:05:30;-4.60;99.90
16823;DHT22;8528;49.976;11.858;2023-03-01T06:08:00;-4.70;99.90
16823;DHT22;8528;49.976;11.858;2023-03-01T06:10:28;-4.60;99.90
16823;DHT22;8528;49.976;11.858;2023-03-01T06:12:55;-4.60;99.90
16823;DHT22;8528;49.976;11.858;2023-03-01T06:15:23;-4.60;99.90
16823;DHT22;8528;49.976;11.858;2023-03-01T06:17:50;-4.50;99.90
16823;DHT22;8528;49.976;11.858;2023-03-01T06:20:19;-4.50;99.90
16823;DHT22;8528;49.976;11.858;2023-03-01T06:22:47;-4.50;99.90
16823;DHT22;8528;49.976;11.858;2023-03-01T06:25:18;-4.40;99.90
16823;DHT22;8528;49.976;11.858;2023-03-01T06:27:46;-4.30;99.90
16823;DHT22;8528;49.976;11.858;2023-03-01T06:30:15;-4.20;99.90
16823;DHT22;8528;49.976;11.858;2023-03-01T06:32:41;-4.20;99.90
16823;DHT22;8528;49.976;11.858;2023-03-01T06:35:13;-4.10;99.90
16823;DHT22;8528;49.976;11.858;2023-03-01T06:37:40;-4.00;99.90
16823;DHT22;8528;49.976;11.858;2023-03-01T06:40:08;-3.90;99.90
16823;DHT22;8528;49.976;11.858;2023-03-01T06:42:41;-3.90;99.90
16823;DHT22;8528;49.976;11.858;2023-03-01T06:45:09;-3.80;99.90
16823;DHT22;8528;49.976;11.858;2023-03-01T06:47:36;-3.70;99.90
16823;DHT22;8528;49.976;11.858;2023-03-01T06:50:04;-3.70;99.90
16823;DHT22;8528;49.976;11.858;2023-03-01T06:52:31;-3.60;99.90
16823;DHT22;8528;49.976;11.858;2023-03-01T06:54:58;-3.50;99.90
16823;DHT22;8528;49.976;11.858;2023-03-01T06:57:26;-3.40;99.90
16823;DHT22;8528;49.976;11.858;2023-03-01T06:59:53;-3.30;99.90
16823;DHT22;8528;49.976;11.858;2023-03-01T07:02:19;-3.20;99.90
16823;DHT22;8528;49.976;11.858;2023-03-01T07:04:49;-3.10;99.90
16823;DHT22;8528;49.976;11.858;2023-03-01T07:07:16;-3.00;99.90
16823;DHT22;8528;49.976;11.858;2023-03-01T07:09:45;-2.80;99.90
16823;DHT22;8528;49.976;11.858;2023-03-01T07:12:12;-2.70;99.90
16823;DHT22;8528;49.976;11.858;2023-03-01T07:14:38;-2.60;99.90
16823;DHT22;8528;49.976;11.858;2023-03-01T07:17:05;-2.40;99.90
16823;DHT22;8528;49.976;11.858;2023-03-01T07:19:33;-2.00;99.90
16823;DHT22;8528;49.976;11.858;2023-03-01T07:21:59;-1.30;99.90
16823;DHT22;8528;49.976;11.858;2023-03-01T07:24:26;-0.60;99.90
16823;DHT22;8528;49.976;11.858;2023-03-01T07:26:53;0.50;99.90
16823;DHT22;8528;49.976;11.858;2023-03-01T07:29:20;1.20;99.90
16823;DHT22;8528;49.976;11.858;2023-03-01T07:31:46;2.90;99.90
16823;DHT22;8528;49.976;11.858;2023-03-01T07:34:13;4.40;99.90
16823;DHT22;8528;49.976;11.858;2023-03-01T07:36:40;5.40;99.70
16823;DHT22;8528;49.976;11.858;2023-03-01T07:39:10;6.70;95.70
16823;DHT22;8528;49.976;11.858;2023-03-01T07:41:37;8.00;91.10
16823;DHT22;8528;49.976;11.858;2023-03-01T07:44:04;9.20;77.50
16823;DHT22;8528;49.976;11.858;2023-03-01T07:46:31;9.80;70.70
16823;DHT22;8528;49.976;11.858;2023-03-01T07:48:58;10.10;64.80
16823;DHT22;8528;49.976;11.858;2023-03-01T07:51:25;10.20;64.90
16823;DHT22;8528;49.976;11.858;2023-03-01T07:53:51;11.40;60.30
16823;DHT22;8528;49.976;11.858;2023-03-01T07:56:18;12.50;56.80
16823;DHT22;8528;49.976;11.858;2023-03-01T07:58:46;13.40;54.30
16823;DHT22;8528;49.976;11.858;2023-03-01T08:01:18;13.90;51.70
16823;DHT22;8528;49.976;11.858;2023-03-01T08:03:45;14.50;50.10
16823;DHT22;8528;49.976;11.858;2023-03-01T08:06:14;15.20;47.90
16823;DHT22;8528;49.976;11.858;2023-03-01T08:08:42;16.00;47.00
16823;DHT22;8528;49.976;11.858;2023-03-01T08:11:11;16.70;43.10
16823;DHT22;8528;49.976;11.858;2023-03-01T08:13:38;16.10;43.80
16823;DHT22;8528;49.976;11.858;2023-03-01T08:16:11;16.20;43.20
16823;DHT22;8528;49.976;11.858;2023-03-01T08:18:39;16.40;43.80
16823;DHT22;8528;49.976;11.858;2023-03-01T08:21:14;17.10;41.80
16823;DHT22;8528;49.976;11.858;2023-03-01T08:23:42;16.20;41.50
16823;DHT22;8528;49.976;11.858;2023-03-01T08:26:15;16.90;41.90
16823;DHT22;8528;49.976;11.858;2023-03-01T08:28:42;17.70;39.60
16823;DHT22;8528;49.976;11.858;2023-03-01T08:31:24;16.70;40.40
16823;DHT22;8528;49.976;11.858;2023-03-01T08:33:55;15.60;41.80
16823;DHT22;8528;49.976;11.858;2023-03-01T08:36:23;14.90;42.70
16823;DHT22;8528;49.976;11.858;2023-03-01T08:38:51;14.40;43.20
16823;DHT22;8528;49.976;11.858;2023-03-01T08:41:18;14.10;44.10
16823;DHT22;8528;49.976;11.858;2023-03-01T08:43:45;14.40;44.20
16823;DHT22;8528;49.976;11.858;2023-03-01T08:46:12;13.30;45.90
16823;DHT22;8528;49.976;11.858;2023-03-01T08:48:39;13.60;45.50
16823;DHT22;8528;49.976;11.858;2023-03-01T08:51:18;15.00;44.30
16823;DHT22;8528;49.976;11.858;2023-03-01T08:53:52;16.50;41.60
16823;DHT22;8528;49.976;11.858;2023-03-01T08:56:19;16.00;41.10
16823;DHT22;8528;49.976;11.858;2023-03-01T08:58:47;16.90;41.30
16823;DHT22;8528;49.976;11.858;2023-03-01T09:01:16;18.20;39.60
16823;DHT22;8528;49.976;11.858;2023-03-01T09:03:44;19.00;37.10
16823;DHT22;8528;49.976;11.858;2023-03-01T09:06:11;18.70;35.90
16823;DHT22;8528;49.976;11.858;2023-03-01T09:08:41;17.30;38.50
16823;DHT22;8528;49.976;11.858;2023-03-01T09:11:10;17.10;38.50
16823;DHT22;8528;49.976;11.858;2023-03-01T09:13:37;18.40;38.30
16823;DHT22;8528;49.976;11.858;2023-03-01T09:16:08;18.20;36.60
16823;DHT22;8528;49.976;11.858;2023-03-01T09:18:35;16.00;39.30
16823;DHT22;8528;49.976;11.858;2023-03-01T09:21:04;15.10;40.70
16823;DHT22;8528;49.976;11.858;2023-03-01T09:23:34;16.30;40.80
16823;DHT22;8528;49.976;11.858;2023-03-01T09:26:03;17.40;38.60
16823;DHT22;8528;49.976;11.858;2023-03-01T09:28:30;17.60;38.10
16823;DHT22;8528;49.976;11.858;2023-03-01T09:31:00;18.00;37.60
16823;DHT22;8528;49.976;11.858;2023-03-01T09:33:29;18.60;36.60
16823;DHT22;8528;49.976;11.858;2023-03-01T09:36:02;19.10;36.60
16823;DHT22;8528;49.976;11.858;2023-03-01T09:38:30;20.00;35.10
16823;DHT22;8528;49.976;11.858;2023-03-01T09:40:57;21.20;33.80
16823;DHT22;8528;49.976;11.858;2023-03-01T09:43:52;21.00;33.40
16823;DHT22;8528;49.976;11.858;2023-03-01T09:46:23;19.10;33.90
16823;DHT22;8528;49.976;11.858;2023-03-01T09:48:56;18.50;35.80
16823;DHT22;8528;49.976;11.858;2023-03-01T09:51:32;17.50;38.00
16823;DHT22;8528;49.976;11.858;2023-03-01T09:54:04;17.70;37.10
16823;DHT22;8528;49.976;11.858;2023-03-01T09:56:42;17.10;37.30
16823;DHT22;8528;49.976;11.858;2023-03-01T10:02:01;16.30;38.80
16823;DHT22;8528;49.976;11.858;2023-03-01T10:04:51;15.60;40.70
16823;DHT22;8528;49.976;11.858;2023-03-01T10:09:58;16.60;39.00
16823;DHT22;8528;49.976;11.858;2023-03-01T10:12:33;17.60;38.20
16823;DHT22;8528;49.976;11.858;2023-03-01T10:15:20;17.90;36.60
16823;DHT22;8528;49.976;11.858;2023-03-01T10:17:55;17.00;38.90
16823;DHT22;8528;49.976;11.858;2023-03-01T10:20:31;18.40;36.70
16823;DHT22;8528;49.976;11.858;2023-03-01T10:23:00;19.00;36.10
16823;DHT22;8528;49.976;11.858;2023-03-01T10:25:42;19.90;34.70
16823;DHT22;8528;49.976;11.858;2023-03-01T10:30:44;18.50;36.00
16823;DHT22;8528;49.976;11.858;2023-03-01T10:33:24;19.20;35.50
16823;DHT22;8528;49.976;11.858;2023-03-01T10:35:52;19.20;35.10
16823;DHT22;8528;49.976;11.858;2023-03-01T10:38:19;17.60;36.40
16823;DHT22;8528;49.976;11.858;2023-03-01T10:40:56;17.90;37.30
16823;DHT22;8528;49.976;11.858;2023-03-01T10:43:44;19.40;35.30
16823;DHT22;8528;49.976;11.858;2023-03-01T10:49:16;20.40;34.00
16823;DHT22;8528;49.976;11.858;2023-03-01T10:51:46;19.00;34.90
16823;DHT22;8528;49.976;11.858;2023-03-01T10:54:32;19.20;35.30
16823;DHT22;8528;49.976;11.858;2023-03-01T10:57:02;19.00;34.80
16823;DHT22;8528;49.976;11.858;2023-03-01T10:59:35;18.60;36.10
16823;DHT22;8528;49.976;11.858;2023-03-01T11:07:29;19.20;35.90
16823;DHT22;8528;49.976;11.858;2023-03-01T11:09:56;19.20;35.00
16823;DHT22;8528;49.976;11.858;2023-03-01T11:12:24;18.50;35.50
16823;DHT22;8528;49.976;11.858;2023-03-01T11:14:53;19.10;35.90
16823;DHT22;8528;49.976;11.858;2023-03-01T11:17:31;20.20;34.60
16823;DHT22;8528;49.976;11.858;2023-03-01T11:23:12;19.40;34.50
16823;DHT22;8528;49.976;11.858;2023-03-01T11:25:43;18.50;36.30
16823;DHT22;8528;49.976;11.858;2023-03-01T11:28:16;19.80;35.20
16823;DHT22;8528;49.976;11.858;2023-03-01T11:30:47;20.20;34.50
16823;DHT22;8528;49.976;11.858;2023-03-01T11:36:38;20.10;33.40
16823;DHT22;8528;49.976;11.858;2023-03-01T11:39:37;17.60;36.30
16823;DHT22;8528;49.976;11.858;2023-03-01T11:42:37;16.50;38.40
16823;DHT22;8528;49.976;11.858;2023-03-01T11:45:11;17.00;38.50
16823;DHT22;8528;49.976;11.858;2023-03-01T11:47:55;16.90;38.50
16823;DHT22;8528;49.976;11.858;2023-03-01T11:50:52;17.00;39.10
16823;DHT22;8528;49.976;11.858;2023-03-01T11:54:13;17.70;38.10
16823;DHT22;8528;49.976;11.858;2023-03-01T11:56:48;18.80;36.30
16823;DHT22;8528;49.976;11.858;2023-03-01T12:02:45;19.60;35.70
16823;DHT22;8528;49.976;11.858;2023-03-01T12:08:45;17.90;36.60
16823;DHT22;8528;49.976;11.858;2023-03-01T12:11:39;17.10;38.10
16823;DHT22;8528;49.976;11.858;2023-03-01T12:28:57;15.80;41.10
16823;DHT22;8528;49.976;11.858;2023-03-01T12:37:12;15.20;41.90
16823;DHT22;8528;49.976;11.858;2023-03-01T12:40:10;14.70;42.30
16823;DHT22;8528;49.976;11.858;2023-03-01T12:43:16;15.60;42.40
16823;DHT22;8528;49.976;11.858;2023-03-01T12:49:33;19.00;37.70
16823;DHT22;8528;49.976;11.858;2023-03-01T12:52:24;20.10;35.60
16823;DHT22;8528;49.976;11.858;2023-03-01T12:54:53;20.10;34.70
16823;DHT22;8528;49.976;11.858;2023-03-01T13:00:35;18.70;36.50
16823;DHT22;8528;49.976;11.858;2023-03-01T13:09:01;18.30;37.20
16823;DHT22;8528;49.976;11.858;2023-03-01T13:11:30;17.20;38.30
16823;DHT22;8528;49.976;11.858;2023-03-01T13:16:53;17.10;39.30
16823;DHT22;8528;49.976;11.858;2023-03-01T13:19:26;18.00;38.70
16823;DHT22;8528;49.976;11.858;2023-03-01T13:21:55;17.90;38.10
16823;DHT22;8528;49.976;11.858;2023-03-01T13:24:41;17.20;39.10
16823;DHT22;8528;49.976;11.858;2023-03-01T13:27:22;17.10;39.90
16823;DHT22;8528;49.976;11.858;2023-03-01T13:29:56;17.60;39.40
16823;DHT22;8528;49.976;11.858;2023-03-01T13:32:26;17.10;39.20
16823;DHT22;8528;49.976;11.858;2023-03-01T13:37:41;17.40;39.50
16823;DHT22;8528;49.976;11.858;2023-03-01T13:42:55;16.00;42.20
16823;DHT22;8528;49.976;11.858;2023-03-01T13:45:39;16.60;41.70
16823;DHT22;8528;49.976;11.858;2023-03-01T13:48:21;17.00;40.20
16823;DHT22;8528;49.976;11.858;2023-03-01T13:50:57;16.70;40.70
16823;DHT22;8528;49.976;11.858;2023-03-01T13:53:27;16.30;41.50
16823;DHT22;8528;49.976;11.858;2023-03-01T13:56:07;15.40;42.00
16823;DHT22;8528;49.976;11.858;2023-03-01T13:58:49;14.10;44.10
16823;DHT22;8528;49.976;11.858;2023-03-01T14:01:31;13.20;46.70
16823;DHT22;8528;49.976;11.858;2023-03-01T14:04:00;13.30;46.80
16823;DHT22;8528;49.976;11.858;2023-03-01T14:06:30;13.10;47.30
16823;DHT22;8528;49.976;11.858;2023-03-01T14:09:20;13.70;47.00
16823;DHT22;8528;49.976;11.858;2023-03-01T14:19:59;12.80;46.80
16823;DHT22;8528;49.976;11.858;2023-03-01T14:22:31;12.10;48.70
16823;DHT22;8528;49.976;11.858;2023-03-01T14:25:32;10.90;51.00
16823;DHT22;8528;49.976;11.858;2023-03-01T14:28:19;10.80;52.60
16823;DHT22;8528;49.976;11.858;2023-03-01T14:30:49;10.30;53.40
16823;DHT22;8528;49.976;11.858;2023-03-01T14:33:23;9.30;55.30
16823;DHT22;8528;49.976;11.858;2023-03-01T14:36:05;8.40;58.20
16823;DHT22;8528;49.976;11.858;2023-03-01T14:38:35;7.70;59.70
16823;DHT22;8528;49.976;11.858;2023-03-01T14:41:15;7.10;62.50
16823;DHT22;8528;49.976;11.858;2023-03-01T14:43:51;7.00;63.70
16823;DHT22;8528;49.976;11.858;2023-03-01T14:46:38;6.90;64.60
16823;DHT22;8528;49.976;11.858;2023-03-01T14:49:16;6.40;65.70
16823;DHT22;8528;49.976;11.858;2023-03-01T14:51:54;6.30;66.60
16823;DHT22;8528;49.976;11.858;2023-03-01T14:57:02;6.10;68.40
16823;DHT22;8528;49.976;11.858;2023-03-01T14:59:29;5.90;69.00
16823;DHT22;8528;49.976;11.858;2023-03-01T15:01:57;5.80;69.80
16823;DHT22;8528;49.976;11.858;2023-03-01T15:04:26;5.60;70.40
16823;DHT22;8528;49.976;11.858;2023-03-01T15:06:55;5.50;71.40
16823;DHT22;8528;49.976;11.858;2023-03-01T15:09:34;5.40;72.00
16823;DHT22;8528;49.976;11.858;2023-03-01T15:14:56;5.40;73.30
16823;DHT22;8528;49.976;11.858;2023-03-01T15:17:33;5.40;73.20
16823;DHT22;8528;49.976;11.858;2023-03-01T15:20:17;5.30;73.70
16823;DHT22;8528;49.976;11.858;2023-03-01T15:22:45;5.20;74.50
16823;DHT22;8528;49.976;11.858;2023-03-01T15:25:19;5.20;75.10
16823;DHT22;8528;49.976;11.858;2023-03-01T15:27:47;5.10;75.50
16823;DHT22;8528;49.976;11.858;2023-03-01T15:30:30;5.00;75.70
16823;DHT22;8528;49.976;11.858;2023-03-01T15:35:57;5.10;77.60
16823;DHT22;8528;49.976;11.858;2023-03-01T15:41:46;4.80;77.70
16823;DHT22;8528;49.976;11.858;2023-03-01T15:44:39;4.60;78.70
16823;DHT22;8528;49.976;11.858;2023-03-01T15:47:29;4.50;79.40
16823;DHT22;8528;49.976;11.858;2023-03-01T15:49:57;4.40;80.40
16823;DHT22;8528;49.976;11.858;2023-03-01T15:52:35;4.40;81.20
16823;DHT22;8528;49.976;11.858;2023-03-01T15:55:19;4.40;81.60
16823;DHT22;8528;49.976;11.858;2023-03-01T15:57:47;4.30;82.30
16823;DHT22;8528;49.976;11.858;2023-03-01T16:00:17;4.30;82.60
16823;DHT22;8528;49.976;11.858;2023-03-01T16:02:44;4.20;82.90
16823;DHT22;8528;49.976;11.858;2023-03-01T16:05:31;4.20;83.70
16823;DHT22;8528;49.976;11.858;2023-03-01T16:07:59;4.20;84.40
16823;DHT22;8528;49.976;11.858;2023-03-01T16:10:27;4.10;84.40
16823;DHT22;8528;49.976;11.858;2023-03-01T16:12:54;4.00;84.90
16823;DHT22;8528;49.976;11.858;2023-03-01T16:15:27;3.90;85.70
16823;DHT22;8528;49.976;11.858;2023-03-01T16:17:58;3.80;86.70
16823;DHT22;8528;49.976;11.858;2023-03-01T16:20:25;3.80;87.30
16823;DHT22;8528;49.976;11.858;2023-03-01T16:23:00;3.70;88.00
16823;DHT22;8528;49.976;11.858;2023-03-01T16:25:28;3.60;88.40
16823;DHT22;8528;49.976;11.858;2023-03-01T16:27:56;3.60;89.10
16823;DHT22;8528;49.976;11.858;2023-03-01T16:30:24;3.50;89.90
16823;DHT22;8528;49.976;11.858;2023-03-01T16:32:52;3.40;90.10
16823;DHT22;8528;49.976;11.858;2023-03-01T16:35:20;3.30;90.40
16823;DHT22;8528;49.976;11.858;2023-03-01T16:37:48;3.30;90.90
16823;DHT22;8528;49.976;11.858;2023-03-01T16:40:21;3.20;91.10
16823;DHT22;8528;49.976;11.858;2023-03-01T16:42:48;3.20;91.50
16823;DHT22;8528;49.976;11.858;2023-03-01T16:45:15;3.10;92.20
16823;DHT22;8528;49.976;11.858;2023-03-01T16:47:51;3.00;92.60
16823;DHT22;8528;49.976;11.858;2023-03-01T16:50:22;2.90;93.20
16823;DHT22;8528;49.976;11.858;2023-03-01T16:52:54;2.80;93.60
16823;DHT22;8528;49.976;11.858;2023-03-01T16:55:21;2.80;94.10
16823;DHT22;8528;49.976;11.858;2023-03-01T16:57:47;2.70;94.50
16823;DHT22;8528;49.976;11.858;2023-03-01T17:00:14;2.70;95.10
16823;DHT22;8528;49.976;11.858;2023-03-01T17:02:41;2.60;95.50
16823;DHT22;8528;49.976;11.858;2023-03-01T17:05:09;2.50;96.10
16823;DHT22;8528;49.976;11.858;2023-03-01T17:07:38;2.50;96.50
16823;DHT22;8528;49.976;11.858;2023-03-01T17:10:08;2.40;97.00
16823;DHT22;8528;49.976;11.858;2023-03-01T17:12:36;2.30;97.80
16823;DHT22;8528;49.976;11.858;2023-03-01T17:15:04;2.20;98.50
16823;DHT22;8528;49.976;11.858;2023-03-01T17:17:31;2.20;99.00
16823;DHT22;8528;49.976;11.858;2023-03-01T17:19:58;2.10;99.70
16823;DHT22;8528;49.976;11.858;2023-03-01T17:22:25;2.10;99.90
16823;DHT22;8528;49.976;11.858;2023-03-01T17:24:52;1.90;99.90
16823;DHT22;8528;49.976;11.858;2023-03-01T17:27:19;1.90;99.90
16823;DHT22;8528;49.976;11.858;2023-03-01T17:29:46;1.90;99.90
16823;DHT22;8528;49.976;11.858;2023-03-01T17:32:12;1.80;99.90
16823;DHT22;8528;49.976;11.858;2023-03-01T17:34:39;1.70;99.90
16823;DHT22;8528;49.976;11.858;2023-03-01T17:37:06;1.60;99.90